Time;durP1;ratioP1;P1;durP2;ratioP2;P2;SDS_P1;SDS_P2;PMS_P1;PMS_P2;Temp;Humidity;BMP_temperature;BMP_pressure;BME280_temperature;BME280_humidity;BME280_pressure;Samples;Min_cycle;Max_cycle;Signal;HPM_P1;HPM_P2
2022/04/22 00:01:03;;;;;;;17.50;11.80;;;10.40;99.90;;;;;;5061591;28;20217;-76
2022/04/22 00:03:52;;;;;;;18.55;11.80;;;10.40;99.90;;;;;;5060777;28;20212;-77
2022/04/22 00:06:42;;;;;;;17.83;11.68;;;10.50;99.90;;;;;;5061650;28;20204;-76
2022/04/22 00:09:31;;;;;;;19.83;12.57;;;10.50;99.90;;;;;;5061637;28;20216;-76
2022/04/22 00:12:19;;;;;;;19.27;12.65;;;10.30;99.90;;;;;;5059329;28;20250;-76
2022/04/22 00:15:09;;;;;;;22.90;12.90;;;10.50;99.90;;;;;;5062037;28;20228;-76
2022/04/22 00:17:58;;;;;;;18.55;12.13;;;10.40;99.90;;;;;;5058722;28;20220;-77
2022/04/22 00:20:46;;;;;;;17.88;13.30;;;10.50;99.90;;;;;;5060880;28;20221;-76
2022/04/22 00:23:36;;;;;;;20.35;13.27;;;10.40;99.90;;;;;;5058836;28;20709;-79
2022/04/22 00:26:25;;;;;;;21.23;13.15;;;10.50;99.90;;;;;;5061659;28;20239;-76
2022/04/22 00:29:14;;;;;;;20.10;11.65;;;10.50;99.90;;;;;;5058076;28;20243;-76
2022/04/22 00:32:03;;;;;;;23.23;13.32;;;10.40;99.90;;;;;;5060419;28;20220;-76
2022/04/22 00:34:52;;;;;;;18.17;12.32;;;10.30;99.90;;;;;;5063704;28;20868;-76
2022/04/22 00:37:42;;;;;;;18.27;11.45;;;10.20;99.90;;;;;;5081347;28;20219;-76
2022/04/22 00:40:33;;;;;;;18.33;13.25;;;10.00;99.90;;;;;;5079943;28;20234;-76
2022/04/22 00:43:23;;;;;;;17.05;11.98;;;10.20;99.90;;;;;;5080606;28;20219;-77
2022/04/22 00:46:13;;;;;;;16.88;11.00;;;10.30;99.90;;;;;;5063575;28;20232;-77
2022/04/22 00:49:01;;;;;;;14.35;10.80;;;10.50;99.90;;;;;;5076768;28;20247;-77
2022/04/22 00:51:50;;;;;;;19.90;11.45;;;10.30;99.90;;;;;;5080132;28;20220;-77
2022/04/22 00:54:39;;;;;;;15.48;10.77;;;10.30;99.90;;;;;;5081700;28;20772;-76
2022/04/22 00:57:29;;;;;;;16.08;12.10;;;10.10;99.90;;;;;;5061178;28;20224;-77
2022/04/22 01:00:18;;;;;;;16.70;11.13;;;10.10;99.90;;;;;;5076435;28;20231;-76
2022/04/22 01:03:07;;;;;;;19.80;12.23;;;10.20;99.90;;;;;;5080673;28;20224;-76
2022/04/22 01:12:11;;;;;;;22.05;13.20;;;10.10;99.90;;;;;;5055176;28;20222;-76
2022/04/22 01:15:01;;;;;;;19.58;12.77;;;10.20;99.90;;;;;;5064264;28;20238;-76
2022/04/22 01:17:50;;;;;;;18.73;11.63;;;10.20;99.90;;;;;;5062080;28;20215;-78
2022/04/22 01:20:39;;;;;;;22.33;11.68;;;10.00;99.90;;;;;;5063068;28;20235;-76
2022/04/22 01:23:29;;;;;;;18.20;11.70;;;10.00;99.90;;;;;;5081660;28;20610;-77
2022/04/22 01:26:18;;;;;;;17.45;11.45;;;10.00;99.90;;;;;;5080184;28;20700;-76
2022/04/22 01:29:07;;;;;;;15.20;10.40;;;10.10;99.90;;;;;;5077425;28;20211;-76
2022/04/22 01:31:56;;;;;;;16.45;10.82;;;9.90;99.90;;;;;;5075358;28;20216;-78
2022/04/22 01:34:44;;;;;;;15.15;9.23;;;9.90;99.90;;;;;;5078610;28;20311;-77
2022/04/22 01:37:33;;;;;;;21.20;10.45;;;9.60;99.90;;;;;;5079443;28;20836;-77
2022/04/22 01:40:23;;;;;;;17.10;9.73;;;9.60;99.90;;;;;;5059179;28;20230;-78
2022/04/22 01:43:11;;;;;;;13.32;8.75;;;9.70;99.90;;;;;;5076670;28;20522;-77
2022/04/22 01:46:00;;;;;;;16.77;9.70;;;9.60;99.90;;;;;;5067222;28;20230;-75
2022/04/22 01:48:49;;;;;;;14.07;9.53;;;9.50;99.90;;;;;;5065240;28;20259;-79
2022/04/22 01:51:38;;;;;;;12.33;9.33;;;9.50;99.90;;;;;;5076697;28;20716;-77
2022/04/22 01:54:27;;;;;;;12.83;9.27;;;9.60;99.90;;;;;;5064668;28;20236;-76
2022/04/22 01:57:17;;;;;;;13.43;8.73;;;9.50;99.90;;;;;;5076942;28;20854;-76
2022/04/22 02:00:08;;;;;;;12.53;9.57;;;9.40;99.90;;;;;;5068647;28;20337;-77
2022/04/22 02:02:58;;;;;;;14.95;9.60;;;9.50;99.90;;;;;;5086850;28;20244;-76
2022/04/22 02:05:46;;;;;;;12.77;9.53;;;9.60;99.90;;;;;;5065765;28;20216;-76
2022/04/22 02:08:36;;;;;;;11.03;8.67;;;9.50;99.90;;;;;;5078181;28;20223;-77
2022/04/22 02:11:25;;;;;;;14.38;9.25;;;9.60;99.90;;;;;;5085067;28;20908;-76
2022/04/22 02:14:15;;;;;;;14.00;9.10;;;9.70;99.90;;;;;;5067727;28;20729;-76
2022/04/22 02:17:05;;;;;;;13.10;8.37;;;9.60;99.90;;;;;;5069927;28;20959;-76
2022/04/22 02:19:53;;;;;;;10.63;8.32;;;9.50;99.90;;;;;;5083068;28;20221;-75
2022/04/22 02:22:42;;;;;;;12.67;8.60;;;9.50;99.90;;;;;;5085653;28;20216;-76
2022/04/22 02:25:31;;;;;;;12.32;8.55;;;9.50;99.90;;;;;;5086945;28;20585;-77
2022/04/22 02:28:33;;;;;;;11.27;8.23;;;9.40;99.90;;;;;;5072051;28;20226;-76
2022/04/22 02:31:23;;;;;;;10.57;8.27;;;9.40;99.90;;;;;;5085994;28;20239;-76
2022/04/22 02:34:12;;;;;;;9.87;7.67;;;9.20;99.90;;;;;;5084139;28;20880;-76
2022/04/22 02:37:01;;;;;;;10.07;7.83;;;9.20;99.90;;;;;;5084438;28;20223;-77
2022/04/22 02:39:49;;;;;;;9.70;7.10;;;9.30;99.90;;;;;;5083645;28;20230;-76
2022/04/22 02:45:44;;;;;;;9.63;6.70;;;9.20;99.90;;;;;;5068324;28;20222;-77
2022/04/22 02:48:34;;;;;;;9.30;6.27;;;9.20;99.90;;;;;;5069801;28;20250;-76
2022/04/22 02:51:23;;;;;;;6.70;5.53;;;9.10;99.90;;;;;;5082010;28;20589;-77
2022/04/22 02:54:11;;;;;;;5.63;5.03;;;9.10;99.90;;;;;;5082869;28;20315;-77
2022/04/22 02:57:00;;;;;;;7.23;5.10;;;9.20;99.90;;;;;;5085196;28;20219;-77
2022/04/22 02:59:49;;;;;;;5.10;4.57;;;9.20;99.90;;;;;;5069930;28;20227;-77
2022/04/22 03:02:38;;;;;;;8.53;4.83;;;9.10;99.90;;;;;;5071561;28;20222;-77
2022/04/22 03:05:28;;;;;;;6.40;4.77;;;9.10;99.90;;;;;;5068230;28;20226;-77
2022/04/22 03:08:17;;;;;;;5.27;4.13;;;9.30;99.90;;;;;;5068935;28;20241;-76
2022/04/22 03:11:06;;;;;;;5.53;4.67;;;9.10;99.90;;;;;;5066470;28;20218;-77
2022/04/22 03:13:54;;;;;;;6.83;4.57;;;9.30;99.90;;;;;;5085152;28;20218;-81
2022/04/22 03:16:44;;;;;;;4.83;4.17;;;9.20;99.90;;;;;;5068512;28;20282;-77
2022/04/22 03:19:33;;;;;;;5.47;3.53;;;9.10;99.90;;;;;;5071592;28;20679;-77
2022/04/22 03:22:23;;;;;;;4.43;4.03;;;9.00;99.90;;;;;;5082644;28;20233;-77
2022/04/22 03:25:12;;;;;;;4.93;4.20;;;9.20;99.90;;;;;;5083333;28;20230;-77
2022/04/22 03:28:00;;;;;;;4.63;3.40;;;9.10;99.90;;;;;;5068734;28;20731;-77
2022/04/22 03:30:50;;;;;;;4.40;3.63;;;9.20;99.90;;;;;;5087117;28;20255;-81
2022/04/22 03:33:39;;;;;;;5.77;4.10;;;9.20;99.90;;;;;;5055771;28;20362;-81
2022/04/22 03:36:28;;;;;;;3.80;3.40;;;9.10;99.90;;;;;;5070493;28;20231;-81
2022/04/22 03:39:18;;;;;;;4.13;3.73;;;9.00;99.90;;;;;;5069778;28;20245;-80
2022/04/22 03:42:08;;;;;;;5.87;3.57;;;9.00;99.90;;;;;;5090037;28;21054;-84
2022/04/22 03:44:57;;;;;;;5.30;4.10;;;8.80;99.90;;;;;;5073035;28;20216;-85
2022/04/22 03:47:46;;;;;;;3.87;3.33;;;9.00;99.90;;;;;;5075440;28;20215;-84
2022/04/22 03:50:36;;;;;;;4.20;3.80;;;9.10;99.90;;;;;;5066860;28;20229;-84
2022/04/22 03:53:24;;;;;;;4.43;3.53;;;9.10;99.90;;;;;;5090613;28;20301;-87
2022/04/22 03:59:21;;;;;;;3.20;2.87;;;9.10;99.90;;;;;;5076977;28;20341;-87
2022/04/22 04:02:09;;;;;;;3.37;2.90;;;9.10;99.90;;;;;;5073527;28;20230;-87
2022/04/22 04:04:58;;;;;;;3.57;3.27;;;8.90;99.90;;;;;;5079617;28;20211;-88
2022/04/22 04:07:47;;;;;;;4.30;3.17;;;8.90;99.90;;;;;;5077541;28;20294;-85
2022/04/22 04:16:46;;;;;;;4.17;3.40;;;8.90;99.90;;;;;;5064067;28;20218;-88
2022/04/22 04:25:50;;;;;;;5.47;3.50;;;8.70;99.90;;;;;;5078482;28;20259;-86
2022/04/22 04:28:39;;;;;;;4.07;3.67;;;8.80;99.90;;;;;;5076443;28;20219;-85
2022/04/22 04:31:31;;;;;;;4.00;3.60;;;8.70;99.90;;;;;;5087376;28;20223;-87
2022/04/22 04:34:19;;;;;;;4.23;3.83;;;8.90;99.90;;;;;;5080691;28;20232;-85
2022/04/22 04:37:09;;;;;;;5.27;3.93;;;8.90;99.90;;;;;;5062106;28;20301;-85
2022/04/22 04:39:58;;;;;;;4.27;3.50;;;8.80;99.90;;;;;;5075897;28;20217;-86
2022/04/22 04:42:47;;;;;;;4.60;4.20;;;9.00;99.90;;;;;;5091056;28;20717;-86
2022/04/22 04:45:37;;;;;;;6.33;4.97;;;9.10;99.90;;;;;;5073220;28;20233;-88
2022/04/22 04:48:29;;;;;;;5.97;5.27;;;9.20;99.90;;;;;;5081437;28;20221;-85
2022/04/22 04:51:18;;;;;;;6.13;5.50;;;9.30;99.90;;;;;;5073076;28;20226;-84
2022/04/22 04:54:06;;;;;;;7.23;6.00;;;9.20;99.90;;;;;;5076622;28;20574;-84
2022/04/22 04:56:55;;;;;;;8.57;6.13;;;9.20;99.90;;;;;;5067255;28;20727;-84
2022/04/22 04:59:44;;;;;;;13.00;9.25;;;9.20;99.90;;;;;;5072487;28;20222;-83
2022/04/22 05:02:32;;;;;;;8.60;7.00;;;9.20;99.90;;;;;;5070552;28;20219;-84
2022/04/22 05:05:23;;;;;;;6.88;6.15;;;9.30;99.90;;;;;;5068726;28;20896;-84
2022/04/22 05:08:12;;;;;;;8.63;6.65;;;9.50;99.90;;;;;;5069088;28;22505;-84
2022/04/22 05:11:00;;;;;;;10.43;7.60;;;9.20;99.90;;;;;;5076563;28;20294;-84
2022/04/22 05:13:51;;;;;;;10.27;8.25;;;9.20;99.90;;;;;;5069205;28;20219;-84
2022/04/22 05:16:40;;;;;;;10.23;8.55;;;9.20;99.90;;;;;;5079136;28;20223;-86
2022/04/22 05:19:29;;;;;;;12.90;8.52;;;9.30;99.90;;;;;;5073036;28;20290;-86
2022/04/22 05:22:19;;;;;;;10.35;8.85;;;9.50;99.90;;;;;;5074460;28;20223;-87
2022/04/22 05:25:10;;;;;;;10.20;8.90;;;9.40;99.90;;;;;;5069533;28;20221;-86
2022/04/22 05:27:59;;;;;;;11.47;8.83;;;9.20;99.90;;;;;;5069912;28;20215;-87
2022/04/22 05:33:54;;;;;;;12.50;9.43;;;9.20;99.90;;;;;;5077434;28;20703;-84
2022/04/22 05:36:43;;;;;;;13.63;9.87;;;9.40;99.90;;;;;;5089897;28;20227;-78
2022/04/22 05:39:33;;;;;;;12.75;10.60;;;9.40;99.90;;;;;;5087787;28;20240;-83
2022/04/22 05:42:22;;;;;;;12.23;10.23;;;9.40;99.90;;;;;;5075321;28;20234;-82
2022/04/22 05:45:12;;;;;;;13.67;10.73;;;9.30;99.90;;;;;;5073744;28;20219;-82
2022/04/22 05:48:02;;;;;;;13.10;10.20;;;9.30;99.90;;;;;;5071202;28;20240;-82
2022/04/22 05:50:50;;;;;;;13.57;11.07;;;9.30;99.90;;;;;;5075003;28;20218;-83
2022/04/22 05:53:44;;;;;;;16.10;11.00;;;9.50;99.90;;;;;;5074429;28;20223;-81
2022/04/22 05:56:34;;;;;;;12.88;10.85;;;9.70;99.90;;;;;;5089944;28;20666;-81
2022/04/22 05:59:23;;;;;;;12.10;9.82;;;9.80;99.90;;;;;;5072631;28;20216;-82
2022/04/22 06:02:11;;;;;;;11.25;9.65;;;9.50;99.90;;;;;;5086290;28;20242;-82
2022/04/22 06:05:00;;;;;;;12.93;9.93;;;9.60;99.90;;;;;;5089859;28;20219;-86
2022/04/22 06:10:31;;;;;;;12.60;10.57;;;9.40;99.90;;;;;;5078715;28;20218;-82
2022/04/22 06:10:59;;;;;;;13.70;10.07;;;9.80;99.90;;;;;;5084247;28;20230;-81
2022/04/22 06:13:49;;;;;;;11.63;8.37;;;9.80;99.90;;;;;;5089809;28;20227;-82
2022/04/22 06:16:41;;;;;;;12.13;8.60;;;9.60;99.90;;;;;;5065496;28;20260;-82
2022/04/22 06:19:29;;;;;;;11.32;8.40;;;9.70;99.90;;;;;;5075911;28;20227;-86
2022/04/22 06:22:18;;;;;;;9.03;7.80;;;9.70;99.90;;;;;;5073988;28;20235;-87
2022/04/22 06:25:10;;;;;;;8.80;7.53;;;10.10;99.90;;;;;;5073500;28;20299;-78
2022/04/22 06:27:59;;;;;;;10.15;8.55;;;10.00;99.90;;;;;;5082236;28;20223;-78
2022/04/22 06:30:50;;;;;;;8.80;7.30;;;10.10;99.90;;;;;;5083200;28;20222;-75
2022/04/22 06:33:39;;;;;;;9.23;7.65;;;10.30;99.90;;;;;;5069058;28;20219;-76
2022/04/22 06:36:30;;;;;;;7.55;6.50;;;10.60;99.90;;;;;;5083626;28;20219;-78
2022/04/22 06:39:19;;;;;;;7.63;6.38;;;10.70;99.90;;;;;;5086583;28;20219;-79
2022/04/22 06:48:30;;;;;;;9.48;7.30;;;11.20;99.90;;;;;;5069008;28;20733;-80
2022/04/22 06:51:35;;;;;;;7.43;6.25;;;11.20;99.90;;;;;;5068955;28;20223;-77
2022/04/22 06:54:24;;;;;;;9.55;6.60;;;10.90;99.90;;;;;;5082376;28;20235;-77
2022/04/22 06:57:15;;;;;;;7.50;6.63;;;10.30;99.90;;;;;;5067782;28;20231;-77
2022/04/22 07:00:04;;;;;;;7.55;6.18;;;10.50;99.90;;;;;;5066257;28;20241;-78
2022/04/22 07:02:53;;;;;;;6.70;6.00;;;10.50;99.90;;;;;;5060952;28;20227;-78
2022/04/22 07:05:45;;;;;;;6.60;5.85;;;11.50;99.90;;;;;;5067966;28;20612;-77
2022/04/22 07:08:35;;;;;;;7.18;5.95;;;11.30;99.90;;;;;;5069699;28;20238;-77
2022/04/22 07:11:25;;;;;;;6.88;6.18;;;10.80;99.90;;;;;;5080689;28;20227;-76
2022/04/22 07:14:14;;;;;;;6.65;5.95;;;10.80;99.90;;;;;;5071646;28;20226;-83
2022/04/22 07:17:04;;;;;;;6.93;6.03;;;10.90;99.90;;;;;;5070108;28;20369;-78
2022/04/22 07:19:53;;;;;;;7.10;6.00;;;11.30;99.90;;;;;;5082751;28;20227;-79
2022/04/22 07:22:44;;;;;;;7.10;5.75;;;10.80;99.90;;;;;;5085831;28;20234;-79
2022/04/22 07:25:34;;;;;;;7.10;6.38;;;10.90;99.90;;;;;;5068482;28;20686;-79
2022/04/22 07:28:23;;;;;;;7.90;6.38;;;10.90;99.90;;;;;;5073065;28;20234;-77
2022/04/22 07:31:13;;;;;;;7.15;6.15;;;11.00;99.90;;;;;;5082931;28;20234;-78
2022/04/22 07:34:02;;;;;;;8.13;6.05;;;10.80;99.90;;;;;;5067036;28;20373;-77
2022/04/22 07:36:51;;;;;;;8.93;6.13;;;10.70;99.90;;;;;;5083202;28;20308;-78
2022/04/22 07:39:42;;;;;;;7.82;6.30;;;10.90;99.90;;;;;;5081908;28;20863;-80
2022/04/22 07:42:34;;;;;;;6.35;5.75;;;10.90;99.90;;;;;;5083153;28;20310;-78
2022/04/22 07:48:29;;;;;;;8.18;5.85;;;11.00;99.90;;;;;;5081070;28;20249;-79
2022/04/22 07:51:19;;;;;;;7.88;6.10;;;11.10;99.90;;;;;;5084059;28;20254;-79
2022/04/22 07:54:08;;;;;;;6.80;5.90;;;11.90;99.90;;;;;;5078955;28;20228;-79
2022/04/22 07:56:59;;;;;;;7.78;5.85;;;13.70;99.90;;;;;;5082975;28;20224;-79
2022/04/22 07:59:47;;;;;;;7.18;5.38;;;14.00;99.90;;;;;;5084375;28;20212;-79
2022/04/22 08:02:40;;;;;;;7.32;5.70;;;14.40;99.90;;;;;;5070384;28;20242;-79
2022/04/22 08:05:29;;;;;;;6.60;6.00;;;13.50;99.90;;;;;;5080784;28;20623;-79
2022/04/22 08:08:17;;;;;;;7.63;5.88;;;12.20;99.90;;;;;;5070858;28;20227;-79
2022/04/22 08:11:06;;;;;;;6.30;5.70;;;11.90;99.90;;;;;;5083025;28;20210;-79
2022/04/22 08:13:56;;;;;;;7.43;5.82;;;11.40;99.90;;;;;;5081426;28;20247;-78
2022/04/22 08:16:45;;;;;;;7.22;5.82;;;11.40;99.90;;;;;;5068631;28;20215;-76
2022/04/22 08:19:34;;;;;;;6.78;5.85;;;12.50;99.90;;;;;;5065432;28;20405;-77
2022/04/22 08:22:24;;;;;;;6.40;5.68;;;11.50;99.90;;;;;;5047587;28;20231;-77
2022/04/22 08:25:13;;;;;;;6.85;5.90;;;11.70;99.90;;;;;;5080281;28;20855;-77
2022/04/22 08:28:02;;;;;;;6.35;5.72;;;11.70;99.90;;;;;;5080431;28;20215;-76
2022/04/22 08:30:52;;;;;;;7.82;5.70;;;11.50;99.90;;;;;;5069508;28;20222;-76
2022/04/22 08:33:45;;;;;;;6.28;5.68;;;13.50;99.90;;;;;;5081922;28;20242;-79
2022/04/22 08:36:34;;;;;;;6.50;5.65;;;14.00;99.90;;;;;;5088229;28;20761;-79
2022/04/22 08:39:24;;;;;;;8.90;5.32;;;13.00;99.90;;;;;;5083905;28;20228;-79
2022/04/22 08:42:13;;;;;;;6.05;5.18;;;13.10;99.90;;;;;;5072385;28;20239;-79
2022/04/22 08:45:26;;;;;;;5.38;4.50;;;13.40;99.90;;;;;;5073877;28;20230;-80
2022/04/22 08:51:24;;;;;;;5.18;4.68;;;12.80;99.90;;;;;;5076612;28;20223;-81
2022/04/22 08:54:15;;;;;;;5.63;5.00;;;11.90;99.90;;;;;;5070864;28;20302;-80
2022/04/22 08:57:04;;;;;;;6.35;5.70;;;11.80;99.90;;;;;;5066026;28;20815;-77
2022/04/22 08:59:53;;;;;;;8.07;6.20;;;12.00;99.90;;;;;;5080468;28;20227;-77
2022/04/22 09:02:41;;;;;;;6.43;5.82;;;12.90;99.90;;;;;;5081273;28;20215;-77
2022/04/22 09:05:34;;;;;;;6.60;5.90;;;11.60;99.90;;;;;;5082589;28;20219;-77
2022/04/22 09:08:24;;;;;;;10.35;6.50;;;11.50;99.90;;;;;;5081701;28;20234;-77
2022/04/22 09:11:12;;;;;;;6.30;5.57;;;11.90;99.90;;;;;;5063595;28;20757;-79
2022/04/22 09:14:03;;;;;;;6.30;5.70;;;14.50;99.90;;;;;;5067632;28;20246;-79
2022/04/22 09:16:52;;;;;;;7.22;6.50;;;13.00;99.90;;;;;;5067633;28;20269;-77
2022/04/22 09:19:43;;;;;;;7.72;5.93;;;11.90;99.90;;;;;;5084202;28;20219;-78
2022/04/22 09:22:36;;;;;;;6.68;5.97;;;12.20;99.90;;;;;;5063718;28;20227;-80
2022/04/22 09:25:26;;;;;;;5.93;5.18;;;12.70;99.90;;;;;;5066570;28;20218;-79
2022/04/22 09:28:15;;;;;;;6.60;5.88;;;12.90;99.90;;;;;;5083950;28;20219;-81
2022/04/22 09:31:06;;;;;;;6.18;5.57;;;13.00;99.90;;;;;;5079964;28;20254;-80
2022/04/22 09:33:55;;;;;;;6.28;5.55;;;12.20;99.90;;;;;;5065910;28;20243;-79
2022/04/22 09:43:13;;;;;;;4.75;4.25;;;11.80;99.90;;;;;;5081798;28;20239;-82
2022/04/22 09:46:02;;;;;;;5.45;4.88;;;13.90;99.90;;;;;;5054563;28;20322;-80
2022/04/22 09:48:54;;;;;;;5.00;4.50;;;14.60;99.90;;;;;;5061722;28;20224;-80
2022/04/22 09:51:43;;;;;;;7.72;5.10;;;13.60;99.50;;;;;;5067190;28;20689;-79
2022/04/22 09:54:31;;;;;;;4.90;4.15;;;14.90;97.10;;;;;;5080741;28;20212;-79
2022/04/22 09:57:56;;;;;;;4.75;4.30;;;14.50;95.30;;;;;;5065535;28;20241;-82
2022/04/22 10:00:47;;;;;;;6.68;5.88;;;14.60;95.70;;;;;;5068523;28;20222;-79
2022/04/22 10:03:37;;;;;;;6.30;5.55;;;13.10;99.90;;;;;;5079724;28;20278;-80
2022/04/22 10:06:26;;;;;;;5.50;5.00;;;12.30;99.90;;;;;;5066722;28;20220;-83
2022/04/22 10:09:16;;;;;;;6.53;5.53;;;11.80;99.90;;;;;;5087796;28;20749;-82
2022/04/22 10:12:09;;;;;;;5.45;4.88;;;12.40;99.90;;;;;;5067634;28;20227;-81
2022/04/22 10:15:02;;;;;;;6.18;4.90;;;12.10;99.90;;;;;;5070156;28;20843;-81
2022/04/22 10:17:52;;;;;;;5.60;5.00;;;12.10;99.90;;;;;;5085054;28;20219;-81
2022/04/22 10:20:43;;;;;;;6.15;4.60;;;12.10;99.90;;;;;;5086016;28;20306;-82
2022/04/22 10:23:32;;;;;;;4.80;4.38;;;13.00;99.90;;;;;;5071470;28;20222;-81
2022/04/22 10:26:22;;;;;;;5.22;4.72;;;14.50;99.90;;;;;;5069077;28;20223;-82
2022/04/22 10:29:11;;;;;;;5.53;5.03;;;13.40;99.90;;;;;;5071739;28;20720;-79
2022/04/22 10:32:04;;;;;;;5.90;5.30;;;12.90;99.90;;;;;;5065916;28;20216;-79
2022/04/22 10:34:58;;;;;;;5.65;5.15;;;12.90;99.90;;;;;;5072224;28;20357;-78
2022/04/22 10:37:49;;;;;;;5.45;4.78;;;12.50;99.90;;;;;;5064683;28;20231;-79
2022/04/22 10:40:38;;;;;;;8.43;5.30;;;12.70;99.90;;;;;;5061569;28;20751;-78
2022/04/22 10:43:27;;;;;;;6.45;5.07;;;17.20;98.40;;;;;;5058728;28;20262;-79
2022/04/22 10:49:36;;;;;;;5.28;4.78;;;15.20;92.70;;;;;;5063465;28;20303;-79
2022/04/22 10:52:27;;;;;;;6.53;4.40;;;14.40;95.50;;;;;;5072908;28;20353;-84
2022/04/22 10:55:17;;;;;;;4.95;4.45;;;14.10;95.70;;;;;;5086510;28;20226;-88
2022/04/22 10:58:25;;;;;;;5.60;4.63;;;13.10;96.20;;;;;;5071336;28;20227;-89
2022/04/22 11:01:31;;;;;;;7.13;4.93;;;13.00;98.90;;;;;;5081290;28;20231;-92
2022/04/22 11:04:21;;;;;;;4.65;4.20;;;13.50;97.70;;;;;;5085129;28;20212;-91
2022/04/22 11:07:12;;;;;;;5.10;4.60;;;13.70;97.90;;;;;;5086171;28;20223;-90
2022/04/22 11:10:03;;;;;;;6.10;4.45;;;13.70;98.10;;;;;;5088651;28;20250;-87
2022/04/22 11:12:55;;;;;;;6.57;4.88;;;13.60;98.00;;;;;;5088217;28;20213;-91
2022/04/22 11:15:51;;;;;;;5.43;4.80;;;13.50;99.80;;;;;;5100273;28;20286;-90
2022/04/22 11:18:41;;;;;;;5.00;4.40;;;13.60;99.90;;;;;;5063496;28;20227;-83
2022/04/22 11:21:43;;;;;;;4.78;4.07;;;13.80;99.40;;;;;;5077324;28;20261;-89
2022/04/22 11:24:34;;;;;;;5.45;3.85;;;14.10;97.20;;;;;;5066823;28;20215;-78
2022/04/22 11:27:28;;;;;;;3.83;3.30;;;14.30;95.90;;;;;;5064385;28;20594;-79
2022/04/22 11:30:17;;;;;;;4.45;4.05;;;13.20;96.90;;;;;;5063083;28;20358;-83
2022/04/22 11:33:14;;;;;;;4.90;4.47;;;12.90;98.20;;;;;;5061243;28;20228;-77
2022/04/22 11:36:06;;;;;;;6.45;4.18;;;12.40;99.10;;;;;;5075556;28;20220;-83
2022/04/22 11:38:56;;;;;;;4.82;4.43;;;12.10;99.90;;;;;;5063913;28;20706;-81
2022/04/22 11:41:57;;;;;;;5.13;4.28;;;12.20;99.90;;;;;;5076079;28;20231;-81
2022/04/22 11:45:01;;;;;;;6.43;4.93;;;12.30;99.90;;;;;;5064262;28;20253;-82
2022/04/22 11:47:50;;;;;;;6.32;4.82;;;12.20;99.90;;;;;;5075360;28;20232;-83
2022/04/22 11:50:40;;;;;;;7.68;5.00;;;12.20;99.90;;;;;;5067111;28;20710;-81
2022/04/22 11:53:32;;;;;;;5.97;5.05;;;12.40;99.90;;;;;;5067762;28;20239;-78
2022/04/22 11:56:23;;;;;;;5.93;4.80;;;12.80;99.90;;;;;;5059372;28;20235;-76
2022/04/22 11:59:13;;;;;;;4.95;4.45;;;12.50;99.90;;;;;;5061283;28;20220;-77
2022/04/22 12:05:34;;;;;;;5.80;5.25;;;12.60;99.90;;;;;;5074378;28;20311;-83
2022/04/22 12:08:23;;;;;;;6.05;5.05;;;12.20;99.90;;;;;;5057158;28;20374;-83
2022/04/22 12:11:16;;;;;;;5.72;5.20;;;12.00;99.90;;;;;;5059845;28;20242;-83
2022/04/22 12:14:09;;;;;;;5.57;4.90;;;12.10;99.90;;;;;;5064488;28;20228;-83
2022/04/22 12:17:01;;;;;;;4.75;4.20;;;11.90;99.90;;;;;;5059821;28;20209;-83
2022/04/22 12:19:51;;;;;;;4.88;4.38;;;11.80;99.90;;;;;;5063937;28;20227;-77
2022/04/22 12:22:40;;;;;;;5.45;4.95;;;11.70;99.90;;;;;;5064219;28;20236;-77
2022/04/22 12:25:29;;;;;;;5.90;5.07;;;12.50;99.90;;;;;;5067865;28;20259;-83
2022/04/22 12:28:18;;;;;;;6.60;5.28;;;12.60;99.90;;;;;;5068119;28;20598;-83
2022/04/22 12:31:09;;;;;;;6.63;4.80;;;12.60;99.90;;;;;;5072041;28;20688;-81
2022/04/22 12:34:04;;;;;;;5.57;4.97;;;12.50;99.90;;;;;;5066636;28;20216;-83
2022/04/22 12:36:57;;;;;;;5.28;4.78;;;12.60;99.90;;;;;;5055546;28;20223;-84
2022/04/22 12:39:49;;;;;;;5.13;4.47;;;12.60;99.90;;;;;;5065719;28;20231;-82
2022/04/22 12:42:39;;;;;;;5.40;4.90;;;12.30;99.90;;;;;;5061926;28;21019;-81
2022/04/22 12:52:11;;;;;;;5.10;4.57;;;12.30;99.90;;;;;;5044136;28;20228;-76
2022/04/22 12:55:05;;;;;;;5.60;5.00;;;11.80;99.90;;;;;;5060701;28;20251;-77
2022/04/22 12:58:00;;;;;;;4.93;4.45;;;11.80;99.90;;;;;;5059846;28;20228;-76
2022/04/22 13:00:52;;;;;;;5.30;4.68;;;11.80;99.90;;;;;;5059488;28;20216;-85
2022/04/22 13:03:44;;;;;;;6.28;4.90;;;11.90;99.90;;;;;;5046066;28;20231;-77
2022/04/22 13:06:40;;;;;;;5.38;4.55;;;12.10;99.90;;;;;;5059133;28;20231;-80
2022/04/22 13:09:32;;;;;;;5.53;4.82;;;11.90;99.90;;;;;;5059214;28;20223;-81
2022/04/22 13:12:21;;;;;;;6.00;4.68;;;11.90;99.90;;;;;;5066432;28;20250;-80
2022/04/22 13:15:13;;;;;;;4.85;4.45;;;12.10;99.90;;;;;;5044901;28;20217;-81
2022/04/22 13:18:02;;;;;;;4.95;4.32;;;12.10;99.90;;;;;;5063135;28;20338;-82
2022/04/22 13:20:52;;;;;;;5.15;4.50;;;12.20;99.90;;;;;;5050484;28;20228;-83
2022/04/22 13:23:41;;;;;;;5.05;4.55;;;12.30;99.90;;;;;;5063877;28;20328;-76
2022/04/22 13:26:35;;;;;;;4.57;4.18;;;12.20;99.90;;;;;;5061569;28;20230;-85
2022/04/22 13:29:26;;;;;;;5.32;4.47;;;12.00;99.90;;;;;;5054835;28;20223;-86
2022/04/22 13:32:17;;;;;;;4.25;3.85;;;11.90;99.90;;;;;;5063164;28;20235;-85
2022/04/22 13:35:07;;;;;;;4.43;3.90;;;11.90;99.90;;;;;;5054204;28;20224;-87
2022/04/22 13:37:57;;;;;;;4.57;4.18;;;11.90;99.90;;;;;;5063430;28;20220;-84
2022/04/22 13:40:50;;;;;;;5.75;4.40;;;12.30;99.90;;;;;;5051145;28;20220;-85
2022/04/22 13:43:43;;;;;;;6.63;5.15;;;12.20;99.90;;;;;;5048607;28;20319;-90
2022/04/22 13:52:45;;;;;;;5.80;4.78;;;11.90;99.90;;;;;;5065332;28;20704;-84
2022/04/22 13:55:37;;;;;;;5.30;4.38;;;11.50;99.90;;;;;;5050840;28;20224;-78
2022/04/22 13:58:26;;;;;;;6.18;4.15;;;11.60;99.90;;;;;;5048678;28;21753;-73
2022/04/22 14:01:17;;;;;;;4.00;3.60;;;11.70;99.90;;;;;;5062756;28;20220;-74
2022/04/22 14:04:06;;;;;;;4.15;3.78;;;11.70;99.90;;;;;;5061125;28;20216;-74
2022/04/22 14:06:56;;;;;;;4.38;3.80;;;11.90;99.90;;;;;;5061772;28;20216;-75
2022/04/22 14:09:44;;;;;;;4.00;3.60;;;12.30;99.90;;;;;;5060152;28;20691;-74
2022/04/22 14:12:33;;;;;;;4.38;3.88;;;12.30;99.90;;;;;;5044598;28;20338;-75
2022/04/22 14:15:22;;;;;;;4.75;4.25;;;12.10;99.90;;;;;;5059479;28;20235;-73
2022/04/22 14:18:13;;;;;;;6.05;3.85;;;12.20;99.90;;;;;;5048711;28;20581;-73
2022/04/22 14:21:03;;;;;;;4.40;4.00;;;12.10;99.90;;;;;;5048562;28;20219;-76
2022/04/22 14:23:52;;;;;;;5.88;3.88;;;12.30;99.90;;;;;;5056157;28;20228;-71
2022/04/22 14:26:40;;;;;;;4.47;4.07;;;12.70;99.90;;;;;;5062364;28;21035;-69
2022/04/22 14:29:49;;;;;;;3.78;3.47;;;12.50;99.90;;;;;;5058454;28;20223;-69
2022/04/22 14:32:38;;;;;;;4.60;4.20;;;12.20;99.90;;;;;;5061920;28;20223;-70
2022/04/22 14:35:28;;;;;;;4.45;4.03;;;12.00;99.90;;;;;;5060356;28;20756;-71
2022/04/22 15:13:10;;;;;;;5.15;3.90;;;11.60;99.90;;;;;;5022298;27;1141130;-71
2022/04/22 15:15:58;;;;;;;5.78;4.20;;;11.60;99.90;;;;;;5051636;28;20224;-69
2022/04/22 15:25:00;;;;;;;6.32;4.30;;;11.50;99.90;;;;;;5054595;28;20651;-68
2022/04/22 15:27:49;;;;;;;5.20;4.28;;;11.50;99.90;;;;;;5058352;28;21015;-77
2022/04/22 15:31:08;;;;;;;5.47;4.53;;;11.40;99.90;;;;;;5052212;28;20224;-70
2022/04/22 15:33:57;;;;;;;4.70;4.20;;;11.30;99.90;;;;;;5051559;28;20309;-74
2022/04/22 15:36:46;;;;;;;6.97;4.00;;;11.30;99.90;;;;;;5057678;28;20224;-73
2022/04/22 15:39:35;;;;;;;4.50;3.90;;;11.20;99.90;;;;;;5066479;28;20244;-71
2022/04/22 15:42:24;;;;;;;4.88;4.30;;;11.10;99.90;;;;;;5056930;28;20220;-71
2022/04/22 15:45:12;;;;;;;4.63;4.18;;;11.20;99.90;;;;;;5072987;28;20223;-72
2022/04/22 15:48:03;;;;;;;4.35;3.95;;;11.30;99.90;;;;;;5055156;28;20220;-85
2022/04/22 15:50:52;;;;;;;5.07;4.57;;;11.40;99.90;;;;;;5052651;28;20289;-68
2022/04/22 15:53:41;;;;;;;4.47;3.67;;;11.50;99.90;;;;;;5053714;28;20213;-69
2022/04/22 15:56:33;;;;;;;4.05;3.65;;;11.60;99.90;;;;;;5057079;28;20224;-70
2022/04/22 15:59:22;;;;;;;4.05;3.42;;;11.30;99.90;;;;;;5053160;28;20217;-70
2022/04/22 16:02:11;;;;;;;4.28;3.47;;;11.40;99.90;;;;;;5073523;28;20242;-85
2022/04/22 16:05:02;;;;;;;3.85;3.45;;;11.30;99.90;;;;;;5070454;28;20807;-75
2022/04/22 16:07:51;;;;;;;3.83;3.15;;;11.40;99.90;;;;;;5055572;28;20273;-71
2022/04/22 16:10:41;;;;;;;4.05;3.20;;;11.40;99.90;;;;;;5055187;28;20228;-71
2022/04/22 16:16:35;;;;;;;3.50;3.20;;;11.50;99.90;;;;;;5054312;28;20220;-72
2022/04/22 16:19:25;;;;;;;3.90;3.50;;;11.30;99.90;;;;;;5054019;28;20232;-78
2022/04/22 16:22:16;;;;;;;5.22;3.50;;;11.20;99.90;;;;;;5042352;28;20228;-73
2022/04/22 16:25:06;;;;;;;4.28;3.85;;;11.20;99.90;;;;;;5038591;28;20217;-72
2022/04/22 16:27:57;;;;;;;3.55;3.25;;;11.10;99.90;;;;;;5038081;28;20209;-74
2022/04/22 16:30:46;;;;;;;5.05;3.55;;;11.00;99.90;;;;;;5040516;28;20521;-69
2022/04/22 16:33:35;;;;;;;3.45;3.15;;;11.10;99.90;;;;;;5036916;28;20355;-70
2022/04/22 16:36:23;;;;;;;3.80;3.42;;;11.00;99.90;;;;;;5053056;28;20224;-70